Аэропорт: Стригино. Нижний Новгород

ICAO: UWGG

METAR:
2019/03/26 13:00
UWGG 261300Z 16004MPS 9999 BKN033 06/M05 Q1004 R18L/090060 NOSIG
METAR:
2019/03/26 12:21
TAF UWGG 261054Z 2612/2712 18003MPS 6000 BKN011 TX07/2612Z TN00/2701Z 
      TEMPO 2612/2615 16005G10MPS 
      TEMPO 2615/2712 22005G10MPS 3500 -SHSN BKN011CB